»·PEaware :: N53440 L88-KSBP

N53440 :: L88-KSBP

FLIGHT INFORMATION

Flight Status: Arrived
Operator: Privately registered:
United States
More flights under this callsign
Pilot: Juan B. (15751)
Aircraft: PIPER PA-28 CHEROKEE ARCHER
(PA28)
More flights by this aircraft type
Origin: L88 New Cuyama
United States
Destination: KSBP San Luis Co Regl
United States
More flights between these airports :: More routes between these airports
Route: DIRECT
File this flight plan on PilotEdge
Remarks:
Altitude:
(Current/Filed)
8,500ft
Speed:
(Current/Filed)
120kts
Departed: 10-Sep-18 09:36 PM
Arrived: 10-Sep-18 10:34 PM
Distance/Time
Traveled:
50nm/0:57
Distance/Time
To Go:
Arrived

Flight Plot

Page will automatically refresh every two minutes.


Map Options




Map Legend


Flown Route
Filed Route
Departure Airport
Arrival Airport
Navaid (VOR, NDB)
Fix

Horizontal Profiles

Position Reports

Time Latitude Longitude Heading Altitude Ground
Speed
10-Sep-18 21:37 34.942303 -119.691344 116 2158ft 0kts
10-Sep-18 21:38 34.941759 -119.690006 115 2161ft 46kts
10-Sep-18 21:39 34.933486 -119.662656 105 2615ft 94kts
10-Sep-18 21:40 34.951046 -119.652357 326 3047ft 90kts
10-Sep-18 21:41 34.965461 -119.677453 315 3420ft 95kts
10-Sep-18 21:42 34.961537 -119.701565 197 3683ft 97kts
10-Sep-18 21:43 34.935651 -119.709328 232 3872ft 102kts
10-Sep-18 21:44 34.939220 -119.735587 333 4429ft 77kts
10-Sep-18 21:45 34.964757 -119.733294 313 4848ft 71kts
10-Sep-18 21:46 34.977471 -119.751637 298 5612ft 69kts
10-Sep-18 21:47 34.987521 -119.773691 293 5814ft 105kts
10-Sep-18 21:48 34.998852 -119.797507 289 5748ft 108kts
10-Sep-18 21:49 35.016026 -119.832022 298 5645ft 122kts
10-Sep-18 21:50 35.022046 -119.870474 280 5949ft 102kts
10-Sep-18 21:51 35.028411 -119.900121 284 6703ft 78kts
10-Sep-18 21:52 35.034368 -119.923435 287 7472ft 68kts
10-Sep-18 21:53 35.040206 -119.944625 288 8152ft 70kts
10-Sep-18 21:54 35.047777 -119.972154 289 8404ft 104kts
10-Sep-18 21:55 35.057775 -120.007097 289 8398ft 113kts
10-Sep-18 21:56 35.068284 -120.043901 290 8396ft 115kts
10-Sep-18 21:57 35.078877 -120.081006 291 8394ft 115kts
10-Sep-18 21:58 35.089505 -120.118110 291 8392ft 116kts
10-Sep-18 21:59 35.100651 -120.157047 292 7974ft 131kts
10-Sep-18 22:00 35.112612 -120.199081 292 7191ft 133kts
10-Sep-18 22:01 35.123345 -120.236973 292 6477ft 135kts
10-Sep-18 22:02 35.135679 -120.280566 291 5663ft 136kts
10-Sep-18 22:03 35.148222 -120.324971 291 4703ft 140kts
10-Sep-18 22:04 35.160830 -120.369708 290 3712ft 141kts
10-Sep-18 22:05 35.172990 -120.412915 290 2773ft 140kts
10-Sep-18 22:06 35.176584 -120.456443 261 2353ft 130kts
10-Sep-18 22:07 35.170551 -120.496541 261 1978ft 129kts
10-Sep-18 22:08 35.155758 -120.532747 184 1559ft 134kts
10-Sep-18 22:09 35.134316 -120.499205 113 1151ft 135kts
10-Sep-18 22:10 35.114161 -120.479639 191 1437ft 92kts
10-Sep-18 22:11 35.090156 -120.479564 116 1705ft 98kts
10-Sep-18 22:12 35.079164 -120.450018 112 2189ft 94kts
10-Sep-18 22:13 35.068618 -120.421187 112 2686ft 91kts
10-Sep-18 22:14 35.058555 -120.393303 112 3179ft 90kts
10-Sep-18 22:15 35.048234 -120.365420 112 3665ft 89kts
10-Sep-18 22:16 35.037846 -120.338039 112 4162ft 88kts
10-Sep-18 22:17 35.036202 -120.333763 112 4241ft 88kts
10-Sep-18 22:18 35.036202 -120.333763 112 4241ft 88kts
10-Sep-18 22:19 35.036202 -120.333763 112 4241ft 88kts
10-Sep-18 22:20 35.036202 -120.333763 112 4241ft 88kts
10-Sep-18 22:21 35.032220 -120.323478 112 4431ft 88kts
10-Sep-18 22:22 35.024828 -120.304643 112 4782ft 87kts
10-Sep-18 22:23 35.015590 -120.277664 74 5283ft 83kts
10-Sep-18 22:24 35.036808 -120.281302 319 5079ft 106kts
10-Sep-18 22:25 35.060003 -120.306408 319 4506ft 115kts
10-Sep-18 22:26 35.079521 -120.336529 304 3520ft 149kts
10-Sep-18 22:27 35.098208 -120.372448 302 2770ft 110kts
10-Sep-18 22:28 35.113884 -120.402977 302 2804ft 104kts
10-Sep-18 22:29 35.129969 -120.434131 302 2634ft 108kts
10-Sep-18 22:30 35.145598 -120.464517 302 2642ft 105kts
10-Sep-18 22:31 35.161239 -120.494913 302 2573ft 111kts
10-Sep-18 22:32 35.178411 -120.528190 302 2046ft 118kts
10-Sep-18 22:33 35.193528 -120.557555 302 1332ft 117kts
10-Sep-18 22:34 35.212838 -120.594002 297 1278ft 102kts
10-Sep-18 22:35 35.225547 -120.620342 308 808ft 60kts
10-Sep-18 22:36 35.235443 -120.637713 306 202ft 39kts
10-Sep-18 22:37 35.237608 -120.639901 9 193ft 0kts
10-Sep-18 22:38 35.237608 -120.639901 9 193ft 0kts
10-Sep-18 22:39 35.237608 -120.639901 9 193ft 0kts
10-Sep-18 22:40 35.238619 -120.639926 278 193ft 0kts
10-Sep-18 22:41 35.238619 -120.639926 278 193ft 0kts
10-Sep-18 22:42 35.238619 -120.639926 278 193ft 0kts
10-Sep-18 22:43 35.238619 -120.639926 278 193ft 0kts
10-Sep-18 22:44 35.238619 -120.639926 278 193ft 0kts
10-Sep-18 22:45 35.238619 -120.639926 278 193ft 0kts
10-Sep-18 22:46 35.238623 -120.639963 270 193ft 2kts
10-Sep-18 22:47 35.237526 -120.639421 123 195ft 13kts
10-Sep-18 22:48 35.235528 -120.635915 125 209ft 12kts
10-Sep-18 22:49 35.233876 -120.632998 123 214ft 12kts
10-Sep-18 22:50 35.233191 -120.632420 212 214ft 0kts

Navigation Log

Ident Type
1. L88 Airport
2. KSBP Airport